Time;durP1;ratioP1;P1;durP2;ratioP2;P2;SDS_P1;SDS_P2;PMS_P1;PMS_P2;Temp;Humidity;BMP_temperature;BMP_pressure;BME280_temperature;BME280_humidity;BME280_pressure;Samples;Min_cycle;Max_cycle;Signal;HPM_P1;HPM_P2
2022/12/18 00:01:24;;;;;;;9.15;6.40;;;;;;;6.16;70.46;95679.97;5108756;28;20027;-78
2022/12/18 00:03:50;;;;;;;11.30;6.60;;;;;;;5.99;70.81;95671.41;5090329;28;20027;-77
2022/12/18 00:06:16;;;;;;;10.00;7.05;;;;;;;5.91;71.06;95686.22;5108573;28;20097;-77
2022/12/18 00:08:42;;;;;;;10.70;7.13;;;;;;;5.86;70.90;95683.84;5091344;28;20032;-77
2022/12/18 00:11:10;;;;;;;10.88;6.75;;;;;;;5.86;71.10;95694.75;5091297;28;20561;-77
2022/12/18 00:13:35;;;;;;;10.18;7.00;;;;;;;5.85;70.85;95690.47;5112759;27;20516;-78
2022/12/18 00:16:09;;;;;;;9.93;6.95;;;;;;;5.87;70.89;95699.03;5120046;27;20089;-78
2022/12/18 00:18:34;;;;;;;9.25;6.70;;;;;;;5.88;70.55;95697.88;5116411;27;20040;-77
2022/12/18 00:21:01;;;;;;;11.52;7.45;;;;;;;5.80;70.49;95704.50;5113713;27;20080;-77
2022/12/18 00:23:27;;;;;;;10.93;7.38;;;;;;;5.77;70.60;95716.16;5090330;28;20024;-77
2022/12/18 00:25:52;;;;;;;10.48;7.03;;;;;;;5.73;70.75;95707.19;5105513;28;20164;-77
2022/12/18 00:28:18;;;;;;;10.65;6.93;;;;;;;5.72;70.93;95703.69;5120944;27;20042;-77
2022/12/18 00:30:43;;;;;;;10.60;6.78;;;;;;;5.64;71.07;95709.50;5127734;27;20031;-77
2022/12/18 00:33:08;;;;;;;11.27;7.28;;;;;;;5.60;71.18;95723.13;5126928;27;20226;-75
2022/12/18 00:35:34;;;;;;;12.27;7.63;;;;;;;5.57;70.94;95721.97;5121248;27;20033;-77
2022/12/18 00:37:59;;;;;;;9.02;6.72;;;;;;;5.54;70.86;95717.28;5116906;27;20043;-77
2022/12/18 00:40:25;;;;;;;10.85;6.38;;;;;;;5.42;70.81;95719.56;5127781;27;20024;-77
2022/12/18 00:42:56;;;;;;;13.15;7.40;;;;;;;5.44;71.00;95731.66;5109458;27;20023;-76
2022/12/18 00:45:25;;;;;;;9.02;6.63;;;;;;;5.43;70.95;95726.59;5129358;27;20027;-77
2022/12/18 00:47:50;;;;;;;11.40;7.38;;;;;;;5.41;70.92;95731.66;5127972;27;20031;-76
2022/12/18 00:50:16;;;;;;;9.73;6.63;;;;;;;5.42;70.95;95730.47;5125876;27;20030;-78
2022/12/18 00:52:42;;;;;;;10.15;7.43;;;;;;;5.36;70.89;95724.63;5126923;27;20019;-76
2022/12/18 00:55:08;;;;;;;12.57;7.97;;;;;;;5.31;70.95;95730.44;5124983;27;20023;-76
2022/12/18 00:57:33;;;;;;;11.25;7.70;;;;;;;5.29;71.16;95730.81;5109419;27;20034;-79
2022/12/18 00:59:59;;;;;;;9.73;7.03;;;;;;;5.31;70.95;95733.16;5126395;27;20019;-76
2022/12/18 01:02:24;;;;;;;11.68;7.35;;;;;;;5.28;70.83;95736.66;5127830;27;20015;-77
2022/12/18 01:04:50;;;;;;;11.88;7.88;;;;;;;5.22;70.83;95735.47;5122899;27;20051;-77
2022/12/18 01:07:15;;;;;;;11.68;8.05;;;;;;;5.17;70.86;95736.63;5114048;27;20115;-77
2022/12/18 01:09:40;;;;;;;12.32;7.70;;;;;;;5.16;71.10;95748.69;5105542;28;20092;-76
2022/12/18 01:12:06;;;;;;;11.40;7.65;;;;;;;5.07;71.39;95749.03;5104488;28;20023;-76
2022/12/18 01:14:31;;;;;;;14.45;8.32;;;;;;;5.00;71.46;95738.09;5114029;27;20098;-76
2022/12/18 01:16:57;;;;;;;13.55;8.48;;;;;;;4.99;71.56;95761.06;5123790;27;20027;-76
2022/12/18 01:19:23;;;;;;;13.30;8.18;;;;;;;4.94;71.44;95750.50;5127367;27;20680;-76
2022/12/18 01:21:49;;;;;;;15.30;9.20;;;;;;;4.94;71.52;95755.97;5125076;27;20023;-76
2022/12/18 01:24:14;;;;;;;13.30;8.98;;;;;;;4.97;71.19;95759.84;5125504;27;20038;-76
2022/12/18 01:26:39;;;;;;;15.38;8.50;;;;;;;4.93;71.40;95759.84;5125483;27;20053;-76
2022/12/18 01:29:05;;;;;;;11.50;8.40;;;;;;;5.02;71.17;95760.28;5126259;27;20481;-77
2022/12/18 01:31:32;;;;;;;11.88;8.00;;;;;;;4.97;71.29;95770.75;5126033;27;20023;-75
2022/12/18 01:33:57;;;;;;;13.07;8.05;;;;;;;4.98;71.08;95764.13;5110422;27;20400;-76
2022/12/18 01:36:24;;;;;;;12.55;8.80;;;;;;;4.95;71.15;95770.38;5102512;27;20026;-75
2022/12/18 01:38:50;;;;;;;13.00;7.88;;;;;;;4.90;71.38;95773.44;5106382;27;21098;-75
2022/12/18 01:41:17;;;;;;;13.68;8.10;;;;;;;4.91;71.25;95775.00;5105189;28;20058;-77
2022/12/18 01:43:42;;;;;;;12.10;8.02;;;;;;;4.92;71.27;95780.06;5087879;28;20039;-76
2022/12/18 01:46:08;;;;;;;11.20;7.53;;;;;;;4.89;71.03;95778.13;5106234;28;20059;-76
2022/12/18 01:48:34;;;;;;;10.88;7.25;;;;;;;4.84;70.93;95775.75;5088596;28;20108;-75
2022/12/18 01:50:59;;;;;;;12.65;8.40;;;;;;;4.89;70.69;95783.56;5104459;28;20046;-75
2022/12/18 01:53:25;;;;;;;12.40;8.25;;;;;;;4.84;70.60;95786.63;5105050;28;20035;-75
2022/12/18 01:55:52;;;;;;;14.65;8.82;;;;;;;4.84;70.55;95785.84;5103789;28;20027;-76
2022/12/18 01:58:18;;;;;;;13.15;8.43;;;;;;;4.79;70.64;95778.81;5087968;28;20076;-76
2022/12/18 02:00:43;;;;;;;14.98;7.95;;;;;;;4.76;70.79;95787.75;5087110;28;20572;-76
2022/12/18 02:03:09;;;;;;;10.23;7.85;;;;;;;4.73;70.80;95788.50;5104766;28;20027;-75
2022/12/18 02:05:44;;;;;;;12.70;7.88;;;;;;;4.78;70.67;95775.31;5089766;28;20112;-77
2022/12/18 02:08:22;;;;;;;11.48;7.32;;;;;;;4.80;70.56;95786.59;5103582;28;20043;-76
2022/12/18 02:11:02;;;;;;;10.88;6.80;;;;;;;4.84;70.64;95791.31;5105021;28;20031;-75
2022/12/18 02:13:56;;;;;;;12.25;7.97;;;;;;;4.85;70.33;95785.47;5117206;27;20034;-76
2022/12/18 02:16:35;;;;;;;11.02;6.97;;;;;;;4.84;69.97;95781.19;5118387;28;20039;-75
2022/12/18 02:19:03;;;;;;;8.70;6.55;;;;;;;4.80;70.13;95794.00;5125402;28;20027;-76
2022/12/18 02:21:34;;;;;;;9.43;6.60;;;;;;;4.77;70.32;95797.50;5123933;28;20029;-76
2022/12/18 02:24:29;;;;;;;11.48;7.15;;;;;;;4.77;70.39;95798.28;5126965;27;20089;-76
2022/12/18 02:26:59;;;;;;;9.65;6.45;;;;;;;4.63;70.40;95809.03;5124346;28;20053;-75
2022/12/18 02:29:44;;;;;;;9.18;6.63;;;;;;;4.61;70.58;95810.59;5107504;28;20023;-75
2022/12/18 02:32:12;;;;;;;19.05;8.75;;;;;;;4.62;70.85;95809.44;5124877;28;20031;-75
2022/12/18 02:34:38;;;;;;;11.52;7.45;;;;;;;4.65;70.64;95809.47;5122875;27;20019;-76
2022/12/18 02:37:05;;;;;;;11.32;7.65;;;;;;;4.62;70.84;95801.25;5096054;28;20034;-75
2022/12/18 02:39:32;;;;;;;12.00;7.50;;;;;;;4.70;70.86;95809.13;5124234;28;20023;-76
2022/12/18 02:41:58;;;;;;;10.68;7.22;;;;;;;4.71;70.59;95816.13;5125395;28;20065;-75
2022/12/18 02:44:24;;;;;;;10.48;7.22;;;;;;;4.72;70.68;95806.78;5124238;28;20027;-76
2022/12/18 02:46:50;;;;;;;12.50;6.95;;;;;;;4.75;70.58;95824.31;5107227;28;20027;-77
2022/12/18 02:49:34;;;;;;;9.95;6.95;;;;;;;4.77;70.53;95820.06;5125550;27;20512;-76
2022/12/18 02:52:33;;;;;;;11.70;7.53;;;;;;;4.80;70.26;95813.06;5127571;27;20496;-76
2022/12/18 02:55:11;;;;;;;11.20;7.32;;;;;;;4.77;70.23;95825.50;5128695;27;20035;-76
2022/12/18 02:57:55;;;;;;;11.93;7.35;;;;;;;4.69;70.47;95831.28;5129725;27;20023;-75
2022/12/18 03:00:28;;;;;;;11.07;5.88;;;;;;;4.64;70.38;95831.63;5110234;27;20059;-75
2022/12/18 03:02:59;;;;;;;10.55;7.20;;;;;;;4.57;70.52;95826.91;5129193;27;20035;-76
2022/12/18 03:05:31;;;;;;;12.15;7.57;;;;;;;4.50;70.65;95813.22;5128601;27;20042;-75
2022/12/18 03:08:07;;;;;;;10.25;6.93;;;;;;;4.49;70.60;95809.72;5128356;27;20121;-76
2022/12/18 03:10:35;;;;;;;9.10;7.00;;;;;;;4.48;70.79;95812.81;5128278;27;20026;-75
2022/12/18 03:13:04;;;;;;;10.35;7.63;;;;;;;4.48;70.27;95812.81;5123951;27;20024;-75
2022/12/18 03:15:35;;;;;;;10.18;6.43;;;;;;;4.46;69.93;95815.13;5117999;27;20027;-75
2022/12/18 03:18:35;;;;;;;11.35;6.15;;;;;;;4.46;69.94;95834.97;5089756;28;20070;-75
2022/12/18 03:21:02;;;;;;;9.38;6.80;;;;;;;4.51;70.00;95833.84;5090581;28;20754;-76
2022/12/18 03:23:29;;;;;;;10.35;6.60;;;;;;;4.54;69.67;95833.09;5090807;28;20028;-74
2022/12/18 03:25:57;;;;;;;9.55;7.20;;;;;;;4.50;69.74;95830.34;5090908;28;20061;-77
2022/12/18 03:28:23;;;;;;;9.93;6.30;;;;;;;4.45;69.65;95832.63;5107789;28;20032;-75
2022/12/18 03:30:51;;;;;;;9.98;7.15;;;;;;;4.46;70.08;95840.41;5089347;28;20030;-76
2022/12/18 03:33:19;;;;;;;9.55;7.03;;;;;;;4.51;69.37;95850.19;5107669;28;20058;-76
2022/12/18 03:35:45;;;;;;;8.57;6.13;;;;;;;4.44;68.89;95850.91;5089872;28;20050;-76
2022/12/18 03:38:10;;;;;;;11.23;6.28;;;;;;;4.41;68.60;95859.81;5090196;28;20032;-75
2022/12/18 03:40:43;;;;;;;10.80;6.55;;;;;;;4.40;68.40;95852.81;5089912;28;20457;-76
2022/12/18 03:43:16;;;;;;;9.75;6.28;;;;;;;4.32;68.07;95864.00;5089839;28;20062;-74
2022/12/18 03:45:45;;;;;;;9.30;6.53;;;;;;;4.38;68.06;95871.47;5074871;28;20067;-76
2022/12/18 03:48:37;;;;;;;10.50;6.70;;;;;;;4.20;68.51;95862.34;5089209;28;20452;-75
2022/12/18 03:51:08;;;;;;;18.67;9.73;;;;;;;4.21;68.67;95874.78;5098135;28;20066;-75
2022/12/18 03:53:41;;;;;;;16.67;9.70;;;;;;;4.14;69.05;95872.78;5090074;28;20110;-75
2022/12/18 03:56:06;;;;;;;11.63;8.07;;;;;;;4.11;69.09;95878.94;5107373;28;20039;-76
2022/12/18 03:58:32;;;;;;;11.45;7.45;;;;;;;4.13;68.94;95884.81;5090563;28;20445;-75
2022/12/18 04:00:59;;;;;;;11.65;6.72;;;;;;;4.14;68.96;95875.50;5088749;28;20023;-75
2022/12/18 04:03:25;;;;;;;15.15;8.07;;;;;;;4.17;68.85;95890.28;5090531;28;20209;-75
2022/12/18 04:05:50;;;;;;;11.35;7.53;;;;;;;4.13;68.98;95884.00;5088871;28;20577;-75
2022/12/18 04:08:15;;;;;;;12.30;7.57;;;;;;;4.11;69.02;95880.88;5106897;28;20023;-76
2022/12/18 04:10:41;;;;;;;12.68;8.20;;;;;;;4.13;68.17;95870.41;5089230;28;20032;-76
2022/12/18 04:13:06;;;;;;;14.88;7.75;;;;;;;4.05;68.59;95890.53;5110683;27;20031;-76
2022/12/18 04:15:34;;;;;;;17.02;9.30;;;;;;;4.14;68.43;95891.81;5124448;27;20027;-76
2022/12/18 04:17:59;;;;;;;13.48;7.95;;;;;;;4.18;68.03;95897.28;5125865;27;20493;-76
2022/12/18 04:20:24;;;;;;;14.68;9.30;;;;;;;4.21;67.63;95902.78;5107363;28;20026;-76
2022/12/18 04:22:50;;;;;;;12.48;7.88;;;;;;;4.15;67.40;95907.00;5107925;28;20045;-75
2022/12/18 04:25:15;;;;;;;14.00;8.02;;;;;;;4.16;67.33;95914.00;5107809;28;20027;-76
2022/12/18 04:27:41;;;;;;;13.23;8.90;;;;;;;4.10;67.39;95925.59;5089661;28;20028;-75
2022/12/18 04:30:07;;;;;;;14.75;8.60;;;;;;;4.09;67.00;95918.59;5108793;28;20032;-76
2022/12/18 04:32:33;;;;;;;12.98;8.75;;;;;;;4.10;67.24;95922.88;5090222;28;20100;-76
2022/12/18 04:34:59;;;;;;;17.85;9.82;;;;;;;4.06;67.17;95935.63;5106733;28;20032;-76
2022/12/18 04:37:24;;;;;;;19.17;10.50;;;;;;;4.00;66.67;95935.19;5108525;28;20092;-76
2022/12/18 04:39:50;;;;;;;17.02;10.38;;;;;;;4.00;66.58;95938.69;5106129;28;20027;-76
2022/12/18 04:42:15;;;;;;;16.27;10.30;;;;;;;4.04;66.52;95933.28;5107365;28;20085;-76
2022/12/18 04:44:40;;;;;;;18.40;10.02;;;;;;;3.93;66.00;95927.72;5105961;28;20035;-76
2022/12/18 04:47:07;;;;;;;14.73;9.35;;;;;;;3.85;65.98;95928.78;5106612;28;20031;-75
2022/12/18 04:49:32;;;;;;;15.63;9.70;;;;;;;3.83;66.25;95947.41;5107482;28;20505;-75
2022/12/18 04:51:58;;;;;;;17.58;9.50;;;;;;;3.80;66.45;95941.94;5108265;28;20034;-75
2022/12/18 04:54:23;;;;;;;18.20;10.48;;;;;;;3.76;66.38;95952.75;5105856;28;20401;-75
2022/12/18 04:56:49;;;;;;;16.23;10.23;;;;;;;3.74;66.22;95955.06;5107202;28;20031;-76
2022/12/18 04:59:14;;;;;;;18.27;10.27;;;;;;;3.80;66.05;95958.25;5089707;28;20066;-76
2022/12/18 05:01:39;;;;;;;16.77;9.90;;;;;;;3.76;66.35;95963.63;5088611;28;20019;-76
2022/12/18 05:04:05;;;;;;;17.27;10.05;;;;;;;3.85;66.14;95969.59;5106976;28;20020;-76
2022/12/18 05:06:30;;;;;;;18.98;9.98;;;;;;;3.92;66.06;95971.63;5106778;28;20036;-75
2022/12/18 05:08:56;;;;;;;18.10;10.73;;;;;;;3.95;66.03;95985.25;5106599;28;20459;-75
2022/12/18 05:11:21;;;;;;;16.23;10.20;;;;;;;3.92;66.06;95974.34;5088411;28;20430;-77
2022/12/18 05:13:47;;;;;;;19.55;11.13;;;;;;;4.03;66.06;95983.44;5079663;28;20031;-75
2022/12/18 05:16:12;;;;;;;15.82;10.07;;;;;;;3.95;65.99;95979.81;5126845;27;20032;-76
2022/12/18 05:18:38;;;;;;;17.08;10.00;;;;;;;3.88;66.31;95995.25;5109247;27;20114;-77
2022/12/18 05:21:04;;;;;;;17.77;10.75;;;;;;;3.86;66.51;95990.19;5114055;27;20035;-76
2022/12/18 05:23:29;;;;;;;18.77;11.18;;;;;;;3.79;66.53;95981.94;5088311;28;20161;-77
2022/12/18 05:25:57;;;;;;;16.58;9.88;;;;;;;3.84;66.35;96000.69;5116177;27;20016;-77
2022/12/18 05:28:23;;;;;;;18.55;10.93;;;;;;;3.85;66.10;95998.75;5088694;28;20026;-76
2022/12/18 05:30:50;;;;;;;19.08;9.90;;;;;;;3.78;65.52;96002.13;5106025;28;20035;-75
2022/12/18 05:33:16;;;;;;;19.15;11.13;;;;;;;3.79;65.46;96006.44;5071880;28;20161;-76
2022/12/18 05:35:41;;;;;;;19.50;11.20;;;;;;;3.80;64.94;96005.28;5088176;28;20163;-75
2022/12/18 05:38:07;;;;;;;17.95;11.07;;;;;;;3.71;65.09;96013.69;5106302;28;20028;-76
2022/12/18 05:40:32;;;;;;;19.30;11.18;;;;;;;3.66;65.48;96016.72;5105954;28;20035;-75
2022/12/18 05:42:57;;;;;;;18.52;11.18;;;;;;;3.65;65.18;96019.81;5107541;28;20030;-75
2022/12/18 05:45:23;;;;;;;20.83;11.60;;;;;;;3.67;65.30;96031.09;5104583;28;20024;-77
2022/12/18 05:47:48;;;;;;;21.23;11.75;;;;;;;3.74;65.16;96033.94;5106111;28;20035;-76
2022/12/18 05:50:14;;;;;;;21.20;10.65;;;;;;;3.70;64.98;96030.38;5103948;28;20027;-75
2022/12/18 05:52:39;;;;;;;18.77;11.32;;;;;;;3.71;64.54;96045.53;5087651;28;20023;-75
2022/12/18 05:55:05;;;;;;;18.77;11.50;;;;;;;3.78;64.68;96053.00;5106740;28;20114;-76
2022/12/18 05:57:30;;;;;;;21.23;11.95;;;;;;;3.78;64.59;96050.28;5109830;27;20521;-75
2022/12/18 05:59:56;;;;;;;22.50;12.82;;;;;;;3.81;64.65;96046.84;5126154;27;20019;-76
2022/12/18 06:02:22;;;;;;;22.50;12.93;;;;;;;3.85;64.68;96048.47;5126561;27;20019;-75
2022/12/18 06:04:47;;;;;;;20.88;11.38;;;;;;;3.83;64.77;96061.66;5125105;27;20700;-76
2022/12/18 06:07:13;;;;;;;19.77;11.65;;;;;;;3.88;64.67;96058.63;5087686;28;20028;-76
2022/12/18 06:09:38;;;;;;;17.65;11.38;;;;;;;3.89;64.82;96054.75;5105225;28;20023;-75
2022/12/18 06:12:04;;;;;;;21.30;12.13;;;;;;;3.94;64.59;96068.03;5105529;28;20024;-75
2022/12/18 06:14:30;;;;;;;19.13;11.52;;;;;;;3.96;64.67;96065.75;5110868;27;20533;-75
2022/12/18 06:16:55;;;;;;;18.67;10.93;;;;;;;3.96;64.92;96062.25;5127728;27;20473;-77
2022/12/18 06:19:21;;;;;;;20.67;11.63;;;;;;;3.94;64.87;96056.38;5119229;27;20020;-76
2022/12/18 06:21:46;;;;;;;20.27;10.70;;;;;;;3.86;64.53;96068.31;5105844;28;20011;-75
2022/12/18 06:24:12;;;;;;;19.17;11.25;;;;;;;3.82;64.56;96070.97;5090204;28;20030;-75
2022/12/18 06:26:38;;;;;;;19.88;11.70;;;;;;;3.74;64.53;96069.28;5110656;27;20089;-75
2022/12/18 06:29:04;;;;;;;19.52;10.52;;;;;;;3.71;64.79;96073.50;5129515;27;20127;-76
2022/12/18 06:31:29;;;;;;;18.30;10.50;;;;;;;3.67;64.72;96074.59;5095066;27;20031;-76
2022/12/18 06:33:55;;;;;;;18.13;11.57;;;;;;;3.64;64.66;96078.06;5118594;27;20065;-76
2022/12/18 06:36:21;;;;;;;20.90;11.98;;;;;;;3.69;64.97;96073.09;5074623;28;20349;-76
2022/12/18 06:38:46;;;;;;;18.17;10.20;;;;;;;3.72;64.46;96077.00;5093057;28;20032;-76
2022/12/18 06:41:19;;;;;;;17.60;10.77;;;;;;;3.69;64.49;96077.75;5074276;28;20039;-77
2022/12/18 06:43:44;;;;;;;15.60;9.80;;;;;;;3.72;64.36;96090.63;5109715;28;20032;-78
2022/12/18 06:46:10;;;;;;;19.80;10.65;;;;;;;3.71;63.31;96094.50;5108430;28;20035;-76
2022/12/18 06:48:35;;;;;;;16.40;9.88;;;;;;;3.65;62.73;96090.50;5108775;28;20023;-75
2022/12/18 06:51:01;;;;;;;18.08;10.82;;;;;;;3.73;62.66;96101.16;5074303;28;20038;-77
2022/12/18 06:53:26;;;;;;;18.55;10.52;;;;;;;3.75;61.80;96108.94;5107486;28;20020;-76
2022/12/18 06:55:52;;;;;;;17.13;10.15;;;;;;;3.73;61.85;96095.72;5110603;28;20416;-75
2022/12/18 06:58:17;;;;;;;17.23;10.13;;;;;;;3.70;61.77;96114.69;5108925;28;20592;-77
2022/12/18 07:00:43;;;;;;;16.42;10.02;;;;;;;3.63;62.27;96114.56;5108893;28;20032;-75
2022/12/18 07:03:08;;;;;;;22.45;11.55;;;;;;;3.66;62.75;96116.56;5109001;28;20059;-76
2022/12/18 07:05:34;;;;;;;19.85;11.73;;;;;;;3.57;63.26;96116.03;5096787;27;20046;-76
2022/12/18 07:08:00;;;;;;;20.30;11.48;;;;;;;3.63;63.32;96120.78;5085750;27;20065;-76
2022/12/18 07:10:26;;;;;;;22.15;13.68;;;;;;;3.63;63.60;96115.34;5118117;27;20020;-77
2022/12/18 07:12:51;;;;;;;20.65;11.75;;;;;;;3.44;63.96;96118.94;5119198;27;20045;-75
2022/12/18 07:15:16;;;;;;;20.15;11.60;;;;;;;3.45;64.29;96127.88;5117387;27;20031;-77
2022/12/18 07:17:42;;;;;;;22.38;12.68;;;;;;;3.35;64.67;96125.72;5119345;27;20020;-77
2022/12/18 07:20:08;;;;;;;21.42;12.93;;;;;;;3.30;64.73;96129.53;5108431;27;20041;-76
2022/12/18 07:22:34;;;;;;;23.45;12.55;;;;;;;3.32;65.00;96129.16;5074176;28;20126;-74
2022/12/18 07:24:59;;;;;;;22.27;12.80;;;;;;;3.33;64.87;96131.53;5109275;28;20409;-75
2022/12/18 07:27:24;;;;;;;22.42;12.60;;;;;;;3.37;64.94;96132.38;5109423;28;20030;-75
2022/12/18 07:29:50;;;;;;;23.95;12.93;;;;;;;3.36;64.65;96138.97;5109473;28;20023;-76
2022/12/18 07:32:15;;;;;;;26.70;14.45;;;;;;;3.34;64.99;96145.91;5107390;28;20024;-75
2022/12/18 07:34:41;;;;;;;23.60;12.77;;;;;;;3.26;65.32;96131.38;5108894;28;20024;-75
2022/12/18 07:37:06;;;;;;;23.60;12.10;;;;;;;3.25;65.57;96135.25;5091884;27;20057;-76
2022/12/18 07:39:32;;;;;;;20.90;12.48;;;;;;;3.24;65.75;96141.84;5119604;27;20398;-75
2022/12/18 07:44:59;;;;;;;25.55;14.00;;;;;;;3.23;65.94;96145.72;5065673;28;20077;-75
2022/12/18 07:47:24;;;;;;;22.92;13.50;;;;;;;3.26;65.66;96144.19;5049241;28;20107;-76
2022/12/18 07:49:50;;;;;;;24.80;14.45;;;;;;;3.44;65.35;96150.72;5048094;28;20047;-75
2022/12/18 07:52:15;;;;;;;22.15;12.73;;;;;;;3.52;65.24;96148.94;5031246;28;20037;-75
2022/12/18 07:54:40;;;;;;;25.10;13.23;;;;;;;3.43;65.65;96149.94;5047913;28;20041;-75
2022/12/18 07:57:06;;;;;;;22.63;12.93;;;;;;;3.44;65.68;96157.00;5023823;28;20123;-75
2022/12/18 07:59:32;;;;;;;25.83;13.90;;;;;;;3.50;65.57;96170.25;5063234;28;20085;-75
2022/12/18 08:01:58;;;;;;;25.30;13.57;;;;;;;3.49;65.43;96165.97;5030879;28;20029;-75
2022/12/18 08:04:24;;;;;;;27.17;13.85;;;;;;;3.54;65.68;96169.19;5064270;28;20032;-74
2022/12/18 08:06:49;;;;;;;25.55;13.48;;;;;;;3.56;65.76;96166.91;5047123;28;20109;-75
2022/12/18 08:09:16;;;;;;;24.08;12.65;;;;;;;3.55;65.32;96178.13;5048250;28;20043;-75
2022/12/18 08:11:41;;;;;;;24.42;13.80;;;;;;;3.55;65.26;96167.25;5063355;28;20021;-75
2022/12/18 08:14:07;;;;;;;25.25;13.85;;;;;;;3.47;65.24;96180.72;5064530;28;20029;-75
2022/12/18 08:16:32;;;;;;;25.30;13.40;;;;;;;3.55;65.04;96178.91;5046637;28;20646;-75
2022/12/18 08:18:58;;;;;;;23.02;13.90;;;;;;;3.54;64.70;96182.00;5080636;27;20036;-75
2022/12/18 08:21:26;;;;;;;22.02;12.38;;;;;;;3.59;64.50;96184.41;5114374;27;20046;-76
2022/12/18 08:23:51;;;;;;;22.38;12.88;;;;;;;3.57;64.25;96186.72;5115893;27;20098;-76
2022/12/18 08:26:17;;;;;;;23.17;13.35;;;;;;;3.53;63.87;96185.88;5099667;27;20114;-76
2022/12/18 08:28:42;;;;;;;21.67;11.98;;;;;;;3.52;63.49;96195.16;5113915;27;20027;-75
2022/12/18 08:31:08;;;;;;;23.33;12.18;;;;;;;3.53;63.45;96191.31;5116784;27;20021;-75
2022/12/18 08:33:34;;;;;;;20.52;12.63;;;;;;;3.56;63.52;96198.75;5114951;27;20027;-75
2022/12/18 08:35:59;;;;;;;21.48;13.15;;;;;;;3.57;63.61;96203.81;5115008;27;20496;-75
2022/12/18 08:38:25;;;;;;;21.88;12.95;;;;;;;3.66;63.64;96200.84;5095041;27;20028;-74
2022/12/18 08:41:01;;;;;;;26.38;14.45;;;;;;;3.70;63.37;96207.16;5127531;27;20027;-75
2022/12/18 08:46:10;;;;;;;26.10;12.95;;;;;;;3.84;62.04;96212.03;5095297;28;20050;-77
2022/12/18 08:48:36;;;;;;;22.00;12.18;;;;;;;3.89;61.69;96204.38;5106781;28;20351;-76
2022/12/18 08:51:01;;;;;;;21.13;11.55;;;;;;;3.90;60.95;96211.41;5106135;28;20027;-77
2022/12/18 08:53:26;;;;;;;19.60;11.13;;;;;;;3.88;60.88;96219.13;5106848;28;20409;-75
2022/12/18 08:55:52;;;;;;;21.40;12.40;;;;;;;3.83;60.99;96211.25;5107699;27;20432;-78
2022/12/18 08:58:18;;;;;;;22.40;11.27;;;;;;;3.85;60.86;96203.53;5088896;28;20383;-77
2022/12/18 09:00:43;;;;;;;18.80;10.75;;;;;;;3.84;60.42;96212.03;5108556;28;20023;-76
2022/12/18 09:03:15;;;;;;;20.42;12.00;;;;;;;3.81;60.46;96218.22;5107378;28;20436;-78
2022/12/18 09:05:41;;;;;;;18.20;10.18;;;;;;;3.74;60.33;96216.16;5107946;28;20048;-75
2022/12/18 09:08:11;;;;;;;20.02;9.75;;;;;;;3.79;60.16;96215.88;5105928;28;20026;-75
2022/12/18 09:10:47;;;;;;;18.50;11.35;;;;;;;3.80;60.25;96203.84;5107405;28;20092;-76
2022/12/18 09:13:13;;;;;;;17.92;10.93;;;;;;;3.86;59.80;96212.50;5089310;28;20027;-76
2022/12/18 09:15:47;;;;;;;22.38;11.27;;;;;;;3.86;59.88;96199.66;5088901;28;20024;-77
2022/12/18 09:18:12;;;;;;;18.33;10.43;;;;;;;3.82;59.89;96209.69;5089194;28;20031;-77
2022/12/18 09:20:38;;;;;;;18.63;10.52;;;;;;;3.86;59.32;96210.56;5071031;28;20042;-78
2022/12/18 09:23:04;;;;;;;18.05;10.10;;;;;;;3.87;59.83;96198.53;5089528;28;20028;-77
2022/12/18 09:25:33;;;;;;;17.70;10.23;;;;;;;3.84;59.58;96212.84;5105530;28;20585;-83
2022/12/18 09:28:00;;;;;;;16.63;9.98;;;;;;;3.84;59.33;96207.41;5107382;28;20027;-78
2022/12/18 09:30:25;;;;;;;17.75;10.30;;;;;;;3.82;59.65;96203.47;5088486;28;20032;-77
2022/12/18 09:32:51;;;;;;;18.58;10.40;;;;;;;3.86;59.60;96213.28;5106918;28;20386;-77
2022/12/18 09:35:17;;;;;;;19.60;10.02;;;;;;;3.99;59.32;96217.38;5105840;28;20096;-74
2022/12/18 09:37:42;;;;;;;21.85;11.20;;;;;;;4.07;59.25;96215.59;5106130;28;20032;-78
2022/12/18 09:40:16;;;;;;;23.48;11.95;;;;;;;4.13;58.82;96207.88;5089232;28;20027;-77
2022/12/18 09:42:42;;;;;;;16.80;10.27;;;;;;;4.10;58.78;96212.13;5104908;28;20187;-76
2022/12/18 09:45:08;;;;;;;16.35;9.25;;;;;;;4.11;58.32;96208.25;5088762;28;20455;-77
2022/12/18 09:47:35;;;;;;;20.80;11.02;;;;;;;4.16;58.27;96212.59;5087910;28;20026;-76
2022/12/18 09:50:04;;;;;;;17.90;10.57;;;;;;;4.24;58.01;96215.09;5088540;28;20116;-76
2022/12/18 09:52:35;;;;;;;19.45;11.18;;;;;;;4.34;57.87;96212.88;5088645;28;20028;-77
2022/12/18 09:55:10;;;;;;;16.65;10.15;;;;;;;4.34;57.60;96204.72;5106472;28;20106;-78
2022/12/18 09:57:37;;;;;;;16.48;9.65;;;;;;;4.41;56.86;96208.31;5105293;28;20028;-77
2022/12/18 10:00:10;;;;;;;16.80;9.77;;;;;;;4.42;56.85;96215.34;5087155;28;20494;-76
2022/12/18 10:02:36;;;;;;;;;;;;;;;4.46;56.50;96210.72;5105910;28;20590;-76
2022/12/18 10:05:05;;;;;;;15.77;9.13;;;;;;;4.43;57.02;96202.53;5106140;28;19998;-77
2022/12/18 10:08:00;;;;;;;17.33;9.63;;;;;;;4.34;57.10;96202.78;5106285;28;20024;-78
2022/12/18 10:10:35;;;;;;;19.77;11.25;;;;;;;4.26;58.08;96195.66;5107232;28;20521;-75
2022/12/18 10:13:22;;;;;;;18.38;9.65;;;;;;;4.26;58.08;96209.25;5088908;28;20078;-77
2022/12/18 10:16:17;;;;;;;18.40;10.25;;;;;;;4.37;58.22;96193.09;5106839;28;20524;-79
2022/12/18 10:19:07;;;;;;;18.33;10.43;;;;;;;4.34;57.78;96199.25;5034962;28;20064;-81
2022/12/18 10:21:39;;;;;;;19.85;10.75;;;;;;;4.43;56.97;96206.03;5106241;28;20068;-78
2022/12/18 10:24:11;;;;;;;17.58;10.93;;;;;;;4.45;56.83;96209.16;5090201;28;20111;-80
2022/12/18 10:26:36;;;;;;;15.80;10.13;;;;;;;4.51;56.82;96217.81;5106650;28;20039;-78
2022/12/18 10:29:08;;;;;;;18.48;10.85;;;;;;;4.52;56.87;96214.72;5088554;28;20487;-77
2022/12/18 10:31:33;;;;;;;19.35;10.90;;;;;;;4.56;56.81;96209.31;5089048;28;20382;-78
2022/12/18 10:33:59;;;;;;;19.00;11.60;;;;;;;4.64;56.97;96216.44;5106029;28;20019;-78
2022/12/18 10:36:24;;;;;;;18.95;10.95;;;;;;;4.68;56.66;96220.00;5105221;28;20463;-78
2022/12/18 10:38:50;;;;;;;19.65;11.10;;;;;;;4.69;56.38;96209.91;5104448;28;20047;-77
2022/12/18 10:41:19;;;;;;;20.35;11.27;;;;;;;4.74;56.47;96215.03;5105154;28;20019;-78
2022/12/18 10:43:45;;;;;;;23.50;12.55;;;;;;;4.74;56.49;96199.47;5105710;28;20031;-78
2022/12/18 10:46:10;;;;;;;22.13;11.45;;;;;;;4.88;56.61;96206.28;5106403;28;20035;-77
2022/12/18 10:48:56;;;;;;;19.58;10.43;;;;;;;4.92;56.04;96207.88;5106020;28;20027;-78
2022/12/18 10:51:34;;;;;;;18.13;10.60;;;;;;;5.03;56.07;96210.75;5105066;28;20047;-78
2022/12/18 10:54:17;;;;;;;17.70;10.40;;;;;;;5.10;55.58;96204.59;5088248;28;20071;-78
2022/12/18 10:56:43;;;;;;;21.75;10.52;;;;;;;5.14;54.55;96200.75;5104008;28;20074;-79
2022/12/18 10:59:10;;;;;;;17.13;9.05;;;;;;;5.17;53.19;96204.72;5104575;28;20527;-79
2022/12/18 11:02:07;;;;;;;18.45;9.75;;;;;;;5.18;53.28;96198.88;5104619;28;20023;-77
2022/12/18 11:04:34;;;;;;;16.42;9.73;;;;;;;5.19;53.66;96199.66;5070966;28;20498;-77
2022/12/18 11:07:00;;;;;;;16.55;9.70;;;;;;;5.20;54.01;96202.00;5106439;28;20031;-78
2022/12/18 11:09:29;;;;;;;18.95;9.55;;;;;;;5.23;53.98;96205.94;5104023;28;20397;-77
2022/12/18 11:11:55;;;;;;;20.13;10.73;;;;;;;5.27;54.14;96209.47;5107873;28;20023;-81
2022/12/18 11:14:27;;;;;;;18.98;10.85;;;;;;;5.32;54.05;96209.94;5074474;28;20031;-77
2022/12/18 11:16:53;;;;;;;19.42;11.30;;;;;;;5.33;54.09;96203.34;5090956;28;20028;-78
2022/12/18 11:19:34;;;;;;;19.20;10.10;;;;;;;5.41;53.98;96206.94;5091869;28;20039;-81
2022/12/18 11:22:01;;;;;;;18.77;11.48;;;;;;;5.37;53.80;96202.59;5107956;28;20088;-78
2022/12/18 11:24:34;;;;;;;17.02;10.85;;;;;;;5.37;53.96;96217.00;5091416;28;20090;-77
2022/12/18 11:27:03;;;;;;;19.15;11.63;;;;;;;5.39;53.63;96217.44;5109190;28;20024;-77
2022/12/18 11:29:37;;;;;;;19.55;10.63;;;;;;;5.35;53.58;96216.59;5091352;28;20028;-78
2022/12/18 11:32:29;;;;;;;20.15;9.90;;;;;;;5.34;54.04;96217.78;5092060;28;20031;-78
2022/12/18 11:35:32;;;;;;;17.63;9.88;;;;;;;5.41;53.61;96206.94;5045477;28;20040;-77
2022/12/18 11:38:02;;;;;;;17.02;10.02;;;;;;;5.36;53.31;96204.53;5013437;28;20057;-76
2022/12/18 11:40:36;;;;;;;19.27;10.43;;;;;;;5.35;52.90;96211.16;5030101;28;20033;-76